sensor_id;sensor_type;location;lat;lon;timestamp;P1;durP1;ratioP1;P2;durP2;ratioP2
33926;SDS011;20485;50.992;5.550;2023-03-23T00:00:47;5.32;;;2.72;;
33926;SDS011;20485;50.992;5.550;2023-03-23T00:03:12;5.60;;;2.47;;
33926;SDS011;20485;50.992;5.550;2023-03-23T00:05:38;3.85;;;2.70;;
33926;SDS011;20485;50.992;5.550;2023-03-23T00:08:06;7.60;;;2.72;;
33926;SDS011;20485;50.992;5.550;2023-03-23T00:10:35;5.25;;;2.83;;
33926;SDS011;20485;50.992;5.550;2023-03-23T00:13:00;6.45;;;2.72;;
33926;SDS011;20485;50.992;5.550;2023-03-23T00:15:29;6.93;;;2.70;;
33926;SDS011;20485;50.992;5.550;2023-03-23T00:18:01;5.70;;;2.55;;
33926;SDS011;20485;50.992;5.550;2023-03-23T00:20:27;6.25;;;2.70;;
33926;SDS011;20485;50.992;5.550;2023-03-23T00:23:05;7.63;;;2.78;;
33926;SDS011;20485;50.992;5.550;2023-03-23T00:25:32;5.35;;;2.67;;
33926;SDS011;20485;50.992;5.550;2023-03-23T00:27:57;5.95;;;2.72;;
33926;SDS011;20485;50.992;5.550;2023-03-23T00:30:23;6.90;;;2.50;;
33926;SDS011;20485;50.992;5.550;2023-03-23T00:32:49;5.65;;;3.15;;
33926;SDS011;20485;50.992;5.550;2023-03-23T00:35:16;10.00;;;3.38;;
33926;SDS011;20485;50.992;5.550;2023-03-23T00:37:42;5.35;;;3.10;;
33926;SDS011;20485;50.992;5.550;2023-03-23T00:40:09;7.35;;;3.08;;
33926;SDS011;20485;50.992;5.550;2023-03-23T00:42:35;5.75;;;2.70;;
33926;SDS011;20485;50.992;5.550;2023-03-23T00:45:03;5.65;;;2.60;;
33926;SDS011;20485;50.992;5.550;2023-03-23T00:47:35;5.60;;;2.45;;
33926;SDS011;20485;50.992;5.550;2023-03-23T00:50:02;6.45;;;2.70;;
33926;SDS011;20485;50.992;5.550;2023-03-23T00:52:30;6.30;;;2.70;;
33926;SDS011;20485;50.992;5.550;2023-03-23T00:54:56;9.15;;;2.47;;
33926;SDS011;20485;50.992;5.550;2023-03-23T00:57:22;8.57;;;2.90;;
33926;SDS011;20485;50.992;5.550;2023-03-23T00:59:49;4.03;;;2.53;;
33926;SDS011;20485;50.992;5.550;2023-03-23T01:02:16;3.50;;;2.90;;
33926;SDS011;20485;50.992;5.550;2023-03-23T01:04:43;3.92;;;2.72;;
33926;SDS011;20485;50.992;5.550;2023-03-23T01:07:10;11.27;;;3.38;;
33926;SDS011;20485;50.992;5.550;2023-03-23T01:09:39;8.00;;;3.13;;
33926;SDS011;20485;50.992;5.550;2023-03-23T01:12:05;4.50;;;2.95;;
33926;SDS011;20485;50.992;5.550;2023-03-23T01:14:31;4.43;;;2.67;;
33926;SDS011;20485;50.992;5.550;2023-03-23T01:16:56;6.15;;;2.60;;
33926;SDS011;20485;50.992;5.550;2023-03-23T01:19:22;3.70;;;2.78;;
33926;SDS011;20485;50.992;5.550;2023-03-23T01:21:48;5.13;;;2.85;;
33926;SDS011;20485;50.992;5.550;2023-03-23T01:24:14;9.00;;;3.70;;
33926;SDS011;20485;50.992;5.550;2023-03-23T01:26:40;6.32;;;2.92;;
33926;SDS011;20485;50.992;5.550;2023-03-23T01:29:05;5.03;;;2.90;;
33926;SDS011;20485;50.992;5.550;2023-03-23T01:31:31;6.78;;;3.00;;
33926;SDS011;20485;50.992;5.550;2023-03-23T01:33:57;8.90;;;3.30;;
33926;SDS011;20485;50.992;5.550;2023-03-23T01:36:24;6.68;;;3.15;;
33926;SDS011;20485;50.992;5.550;2023-03-23T01:38:58;5.80;;;3.20;;
33926;SDS011;20485;50.992;5.550;2023-03-23T01:41:25;7.68;;;3.33;;
33926;SDS011;20485;50.992;5.550;2023-03-23T01:44:02;7.53;;;3.40;;
33926;SDS011;20485;50.992;5.550;2023-03-23T01:46:33;6.47;;;3.40;;
33926;SDS011;20485;50.992;5.550;2023-03-23T01:49:06;7.05;;;3.15;;
33926;SDS011;20485;50.992;5.550;2023-03-23T01:51:35;6.72;;;2.95;;
33926;SDS011;20485;50.992;5.550;2023-03-23T01:54:06;6.22;;;3.50;;
33926;SDS011;20485;50.992;5.550;2023-03-23T01:56:39;6.60;;;3.67;;
33926;SDS011;20485;50.992;5.550;2023-03-23T01:59:07;6.60;;;3.33;;
33926;SDS011;20485;50.992;5.550;2023-03-23T02:01:35;4.18;;;3.10;;
33926;SDS011;20485;50.992;5.550;2023-03-23T02:04:04;7.93;;;3.38;;
33926;SDS011;20485;50.992;5.550;2023-03-23T02:06:30;8.98;;;3.20;;
33926;SDS011;20485;50.992;5.550;2023-03-23T02:08:56;5.32;;;3.15;;
33926;SDS011;20485;50.992;5.550;2023-03-23T02:11:22;5.22;;;3.00;;
33926;SDS011;20485;50.992;5.550;2023-03-23T02:13:48;4.97;;;3.00;;
33926;SDS011;20485;50.992;5.550;2023-03-23T02:16:24;7.88;;;3.30;;
33926;SDS011;20485;50.992;5.550;2023-03-23T02:27:20;4.13;;;2.70;;
33926;SDS011;20485;50.992;5.550;2023-03-23T02:37:57;8.25;;;3.20;;
33926;SDS011;20485;50.992;5.550;2023-03-23T02:40:30;7.33;;;3.00;;
33926;SDS011;20485;50.992;5.550;2023-03-23T02:43:02;5.05;;;3.20;;
33926;SDS011;20485;50.992;5.550;2023-03-23T02:45:34;10.30;;;3.55;;
33926;SDS011;20485;50.992;5.550;2023-03-23T02:48:01;6.10;;;3.15;;
33926;SDS011;20485;50.992;5.550;2023-03-23T02:50:29;5.68;;;3.00;;
33926;SDS011;20485;50.992;5.550;2023-03-23T02:52:56;5.45;;;3.25;;
33926;SDS011;20485;50.992;5.550;2023-03-23T02:55:24;5.78;;;3.00;;
33926;SDS011;20485;50.992;5.550;2023-03-23T02:57:52;4.00;;;2.78;;
33926;SDS011;20485;50.992;5.550;2023-03-23T03:00:18;4.63;;;3.00;;
33926;SDS011;20485;50.992;5.550;2023-03-23T03:02:54;4.35;;;3.08;;
33926;SDS011;20485;50.992;5.550;2023-03-23T03:10:52;12.20;;;3.40;;
33926;SDS011;20485;50.992;5.550;2023-03-23T03:21:27;6.18;;;2.88;;
33926;SDS011;20485;50.992;5.550;2023-03-23T03:23:55;5.10;;;3.13;;
33926;SDS011;20485;50.992;5.550;2023-03-23T03:26:26;4.25;;;2.83;;
33926;SDS011;20485;50.992;5.550;2023-03-23T03:28:53;7.20;;;3.45;;
33926;SDS011;20485;50.992;5.550;2023-03-23T03:31:21;6.82;;;2.88;;
33926;SDS011;20485;50.992;5.550;2023-03-23T03:34:04;7.82;;;3.00;;
33926;SDS011;20485;50.992;5.550;2023-03-23T03:36:32;5.97;;;2.63;;
33926;SDS011;20485;50.992;5.550;2023-03-23T03:39:00;6.28;;;2.83;;
33926;SDS011;20485;50.992;5.550;2023-03-23T03:41:30;6.68;;;2.90;;
33926;SDS011;20485;50.992;5.550;2023-03-23T03:43:56;3.55;;;2.70;;
33926;SDS011;20485;50.992;5.550;2023-03-23T03:46:29;6.13;;;2.97;;
33926;SDS011;20485;50.992;5.550;2023-03-23T03:48:56;5.22;;;2.70;;
33926;SDS011;20485;50.992;5.550;2023-03-23T03:51:26;5.10;;;3.00;;
33926;SDS011;20485;50.992;5.550;2023-03-23T03:53:53;7.28;;;2.92;;
33926;SDS011;20485;50.992;5.550;2023-03-23T03:56:19;8.20;;;3.05;;
33926;SDS011;20485;50.992;5.550;2023-03-23T03:58:47;6.63;;;2.75;;
33926;SDS011;20485;50.992;5.550;2023-03-23T04:01:14;6.70;;;2.75;;
33926;SDS011;20485;50.992;5.550;2023-03-23T04:03:41;4.95;;;2.88;;
33926;SDS011;20485;50.992;5.550;2023-03-23T04:06:08;6.60;;;2.50;;
33926;SDS011;20485;50.992;5.550;2023-03-23T04:08:35;3.88;;;2.22;;
33926;SDS011;20485;50.992;5.550;2023-03-23T04:11:02;3.78;;;2.35;;
33926;SDS011;20485;50.992;5.550;2023-03-23T04:13:29;7.00;;;3.13;;
33926;SDS011;20485;50.992;5.550;2023-03-23T04:15:55;4.47;;;2.70;;
33926;SDS011;20485;50.992;5.550;2023-03-23T04:18:21;4.63;;;2.60;;
33926;SDS011;20485;50.992;5.550;2023-03-23T04:20:50;6.15;;;2.47;;
33926;SDS011;20485;50.992;5.550;2023-03-23T04:23:16;2.90;;;2.17;;
33926;SDS011;20485;50.992;5.550;2023-03-23T04:25:46;7.85;;;2.28;;
33926;SDS011;20485;50.992;5.550;2023-03-23T04:28:13;5.00;;;2.22;;
33926;SDS011;20485;50.992;5.550;2023-03-23T04:30:41;5.97;;;2.17;;
33926;SDS011;20485;50.992;5.550;2023-03-23T04:33:14;3.58;;;2.03;;
33926;SDS011;20485;50.992;5.550;2023-03-23T04:35:41;3.85;;;2.00;;
33926;SDS011;20485;50.992;5.550;2023-03-23T04:38:07;5.95;;;1.98;;
33926;SDS011;20485;50.992;5.550;2023-03-23T04:40:37;5.63;;;2.00;;
33926;SDS011;20485;50.992;5.550;2023-03-23T04:43:05;10.35;;;2.10;;
33926;SDS011;20485;50.992;5.550;2023-03-23T04:45:32;7.18;;;2.10;;
33926;SDS011;20485;50.992;5.550;2023-03-23T04:47:59;7.18;;;2.05;;
33926;SDS011;20485;50.992;5.550;2023-03-23T04:50:27;4.00;;;1.90;;
33926;SDS011;20485;50.992;5.550;2023-03-23T04:52:55;4.15;;;1.80;;
33926;SDS011;20485;50.992;5.550;2023-03-23T04:55:23;4.10;;;2.00;;
33926;SDS011;20485;50.992;5.550;2023-03-23T04:57:50;4.93;;;1.63;;
33926;SDS011;20485;50.992;5.550;2023-03-23T05:00:16;6.88;;;2.20;;
33926;SDS011;20485;50.992;5.550;2023-03-23T05:02:44;5.97;;;2.05;;
33926;SDS011;20485;50.992;5.550;2023-03-23T05:05:12;5.13;;;1.50;;
33926;SDS011;20485;50.992;5.550;2023-03-23T05:07:38;7.35;;;1.83;;
33926;SDS011;20485;50.992;5.550;2023-03-23T05:10:05;7.05;;;2.20;;
33926;SDS011;20485;50.992;5.550;2023-03-23T05:12:33;8.55;;;2.10;;
33926;SDS011;20485;50.992;5.550;2023-03-23T05:14:59;6.47;;;2.03;;
33926;SDS011;20485;50.992;5.550;2023-03-23T05:17:25;8.88;;;1.60;;
33926;SDS011;20485;50.992;5.550;2023-03-23T05:19:51;8.20;;;1.65;;
33926;SDS011;20485;50.992;5.550;2023-03-23T05:22:18;9.02;;;1.27;;
33926;SDS011;20485;50.992;5.550;2023-03-23T05:24:46;9.93;;;1.85;;
33926;SDS011;20485;50.992;5.550;2023-03-23T05:27:12;7.55;;;2.00;;
33926;SDS011;20485;50.992;5.550;2023-03-23T05:29:40;5.88;;;1.92;;
33926;SDS011;20485;50.992;5.550;2023-03-23T05:32:08;5.00;;;1.67;;
33926;SDS011;20485;50.992;5.550;2023-03-23T05:34:35;4.30;;;1.60;;
33926;SDS011;20485;50.992;5.550;2023-03-23T05:37:02;5.82;;;1.80;;
33926;SDS011;20485;50.992;5.550;2023-03-23T05:39:29;10.13;;;1.88;;
33926;SDS011;20485;50.992;5.550;2023-03-23T05:41:56;6.90;;;2.25;;
33926;SDS011;20485;50.992;5.550;2023-03-23T05:44:22;4.35;;;1.60;;
33926;SDS011;20485;50.992;5.550;2023-03-23T05:46:48;6.88;;;1.98;;
33926;SDS011;20485;50.992;5.550;2023-03-23T05:49:15;6.07;;;1.58;;
33926;SDS011;20485;50.992;5.550;2023-03-23T05:51:41;9.30;;;1.92;;
33926;SDS011;20485;50.992;5.550;2023-03-23T05:54:14;3.75;;;1.63;;
33926;SDS011;20485;50.992;5.550;2023-03-23T05:56:41;6.22;;;1.67;;
33926;SDS011;20485;50.992;5.550;2023-03-23T05:59:07;8.43;;;1.77;;
33926;SDS011;20485;50.992;5.550;2023-03-23T06:01:35;5.55;;;1.70;;
33926;SDS011;20485;50.992;5.550;2023-03-23T06:04:00;7.82;;;1.70;;
33926;SDS011;20485;50.992;5.550;2023-03-23T06:06:27;7.43;;;1.65;;
33926;SDS011;20485;50.992;5.550;2023-03-23T06:08:54;6.93;;;1.52;;
33926;SDS011;20485;50.992;5.550;2023-03-23T06:11:22;7.30;;;1.73;;
33926;SDS011;20485;50.992;5.550;2023-03-23T06:13:49;3.22;;;1.67;;
33926;SDS011;20485;50.992;5.550;2023-03-23T06:16:15;7.70;;;1.73;;
33926;SDS011;20485;50.992;5.550;2023-03-23T06:18:41;3.53;;;1.38;;
33926;SDS011;20485;50.992;5.550;2023-03-23T06:21:08;7.18;;;1.90;;
33926;SDS011;20485;50.992;5.550;2023-03-23T06:23:37;9.15;;;1.95;;
33926;SDS011;20485;50.992;5.550;2023-03-23T06:26:04;6.53;;;1.70;;
33926;SDS011;20485;50.992;5.550;2023-03-23T06:28:31;6.60;;;2.00;;
33926;SDS011;20485;50.992;5.550;2023-03-23T06:30:59;6.70;;;1.73;;
33926;SDS011;20485;50.992;5.550;2023-03-23T06:33:26;4.75;;;1.60;;
33926;SDS011;20485;50.992;5.550;2023-03-23T06:35:52;6.25;;;1.50;;
33926;SDS011;20485;50.992;5.550;2023-03-23T06:38:17;6.50;;;1.77;;
33926;SDS011;20485;50.992;5.550;2023-03-23T06:40:43;5.47;;;1.75;;
33926;SDS011;20485;50.992;5.550;2023-03-23T06:43:11;7.57;;;1.88;;
33926;SDS011;20485;50.992;5.550;2023-03-23T06:45:38;4.97;;;1.90;;
33926;SDS011;20485;50.992;5.550;2023-03-23T06:48:04;5.22;;;1.95;;
33926;SDS011;20485;50.992;5.550;2023-03-23T06:50:31;8.20;;;1.50;;
33926;SDS011;20485;50.992;5.550;2023-03-23T06:52:56;6.85;;;1.95;;
33926;SDS011;20485;50.992;5.550;2023-03-23T06:55:22;3.08;;;1.67;;
33926;SDS011;20485;50.992;5.550;2023-03-23T06:57:48;5.70;;;1.80;;
33926;SDS011;20485;50.992;5.550;2023-03-23T07:00:14;5.50;;;1.80;;
33926;SDS011;20485;50.992;5.550;2023-03-23T07:02:40;6.55;;;1.80;;
33926;SDS011;20485;50.992;5.550;2023-03-23T07:05:07;6.53;;;1.90;;
33926;SDS011;20485;50.992;5.550;2023-03-23T07:07:34;7.63;;;1.65;;
33926;SDS011;20485;50.992;5.550;2023-03-23T07:10:01;7.32;;;1.67;;
33926;SDS011;20485;50.992;5.550;2023-03-23T07:12:28;5.55;;;1.77;;
33926;SDS011;20485;50.992;5.550;2023-03-23T07:14:54;4.28;;;1.65;;
33926;SDS011;20485;50.992;5.550;2023-03-23T07:17:23;6.13;;;1.70;;
33926;SDS011;20485;50.992;5.550;2023-03-23T07:19:53;6.53;;;1.83;;
33926;SDS011;20485;50.992;5.550;2023-03-23T07:22:19;4.53;;;1.52;;
33926;SDS011;20485;50.992;5.550;2023-03-23T07:24:45;6.20;;;2.08;;
33926;SDS011;20485;50.992;5.550;2023-03-23T07:27:11;9.35;;;2.22;;
33926;SDS011;20485;50.992;5.550;2023-03-23T07:29:37;7.82;;;2.00;;
33926;SDS011;20485;50.992;5.550;2023-03-23T07:32:03;9.50;;;2.28;;
33926;SDS011;20485;50.992;5.550;2023-03-23T07:34:30;4.47;;;2.10;;
33926;SDS011;20485;50.992;5.550;2023-03-23T07:36:57;5.80;;;1.63;;
33926;SDS011;20485;50.992;5.550;2023-03-23T07:39:23;5.95;;;1.63;;
33926;SDS011;20485;50.992;5.550;2023-03-23T07:41:50;5.07;;;1.55;;
33926;SDS011;20485;50.992;5.550;2023-03-23T07:44:16;5.40;;;1.30;;
33926;SDS011;20485;50.992;5.550;2023-03-23T07:46:42;7.28;;;1.60;;
33926;SDS011;20485;50.992;5.550;2023-03-23T07:49:08;7.25;;;1.90;;
33926;SDS011;20485;50.992;5.550;2023-03-23T07:51:36;10.18;;;2.30;;
33926;SDS011;20485;50.992;5.550;2023-03-23T07:54:04;6.18;;;1.48;;
33926;SDS011;20485;50.992;5.550;2023-03-23T07:56:32;7.90;;;1.80;;
33926;SDS011;20485;50.992;5.550;2023-03-23T07:58:59;4.85;;;1.23;;
33926;SDS011;20485;50.992;5.550;2023-03-23T08:01:25;15.07;;;1.63;;
33926;SDS011;20485;50.992;5.550;2023-03-23T08:03:51;5.63;;;1.48;;
33926;SDS011;20485;50.992;5.550;2023-03-23T08:06:19;7.55;;;1.48;;
33926;SDS011;20485;50.992;5.550;2023-03-23T08:08:46;6.13;;;1.73;;
33926;SDS011;20485;50.992;5.550;2023-03-23T08:11:11;10.50;;;1.50;;
33926;SDS011;20485;50.992;5.550;2023-03-23T08:13:40;5.90;;;1.75;;
33926;SDS011;20485;50.992;5.550;2023-03-23T08:16:07;7.55;;;2.08;;
33926;SDS011;20485;50.992;5.550;2023-03-23T08:18:34;7.32;;;1.92;;
33926;SDS011;20485;50.992;5.550;2023-03-23T08:21:01;6.10;;;2.25;;
33926;SDS011;20485;50.992;5.550;2023-03-23T08:23:29;4.28;;;1.30;;
33926;SDS011;20485;50.992;5.550;2023-03-23T08:25:56;7.75;;;1.63;;
33926;SDS011;20485;50.992;5.550;2023-03-23T08:28:22;7.45;;;1.65;;
33926;SDS011;20485;50.992;5.550;2023-03-23T08:30:48;11.35;;;1.67;;
33926;SDS011;20485;50.992;5.550;2023-03-23T08:33:15;5.13;;;1.58;;
33926;SDS011;20485;50.992;5.550;2023-03-23T08:35:41;4.72;;;1.60;;
33926;SDS011;20485;50.992;5.550;2023-03-23T08:38:08;9.13;;;2.00;;
33926;SDS011;20485;50.992;5.550;2023-03-23T08:40:37;7.25;;;1.70;;
33926;SDS011;20485;50.992;5.550;2023-03-23T08:43:04;11.68;;;1.73;;
33926;SDS011;20485;50.992;5.550;2023-03-23T08:45:30;4.10;;;0.70;;
33926;SDS011;20485;50.992;5.550;2023-03-23T08:47:56;1.30;;;0.65;;
33926;SDS011;20485;50.992;5.550;2023-03-23T08:50:25;1.90;;;0.60;;
33926;SDS011;20485;50.992;5.550;2023-03-23T08:52:55;1.90;;;0.63;;
33926;SDS011;20485;50.992;5.550;2023-03-23T08:55:21;5.57;;;0.93;;
33926;SDS011;20485;50.992;5.550;2023-03-23T08:57:47;3.35;;;0.90;;
33926;SDS011;20485;50.992;5.550;2023-03-23T09:00:17;3.42;;;1.00;;
33926;SDS011;20485;50.992;5.550;2023-03-23T09:02:45;2.80;;;0.80;;
33926;SDS011;20485;50.992;5.550;2023-03-23T09:05:13;4.15;;;1.05;;
33926;SDS011;20485;50.992;5.550;2023-03-23T09:07:46;3.58;;;1.10;;
33926;SDS011;20485;50.992;5.550;2023-03-23T09:10:13;5.90;;;1.58;;
33926;SDS011;20485;50.992;5.550;2023-03-23T09:12:40;2.42;;;1.23;;
33926;SDS011;20485;50.992;5.550;2023-03-23T09:15:07;4.07;;;1.40;;
33926;SDS011;20485;50.992;5.550;2023-03-23T09:17:35;4.90;;;1.55;;
33926;SDS011;20485;50.992;5.550;2023-03-23T09:20:03;3.90;;;1.13;;
33926;SDS011;20485;50.992;5.550;2023-03-23T09:22:37;3.88;;;1.38;;
33926;SDS011;20485;50.992;5.550;2023-03-23T09:25:07;7.60;;;1.40;;
33926;SDS011;20485;50.992;5.550;2023-03-23T09:27:35;3.97;;;1.70;;
33926;SDS011;20485;50.992;5.550;2023-03-23T09:30:02;3.47;;;1.30;;
33926;SDS011;20485;50.992;5.550;2023-03-23T09:32:32;3.47;;;1.45;;
33926;SDS011;20485;50.992;5.550;2023-03-23T09:35:01;8.40;;;1.30;;
33926;SDS011;20485;50.992;5.550;2023-03-23T09:37:28;4.47;;;1.10;;
33926;SDS011;20485;50.992;5.550;2023-03-23T09:39:54;4.88;;;1.45;;
33926;SDS011;20485;50.992;5.550;2023-03-23T09:45:37;2.88;;;1.08;;
33926;SDS011;20485;50.992;5.550;2023-03-23T09:48:38;4.53;;;1.27;;
33926;SDS011;20485;50.992;5.550;2023-03-23T09:51:30;2.83;;;1.25;;
33926;SDS011;20485;50.992;5.550;2023-03-23T09:56:50;3.20;;;1.42;;
33926;SDS011;20485;50.992;5.550;2023-03-23T09:59:22;6.40;;;1.35;;
33926;SDS011;20485;50.992;5.550;2023-03-23T10:01:52;6.63;;;1.77;;
33926;SDS011;20485;50.992;5.550;2023-03-23T10:04:38;8.95;;;2.05;;
33926;SDS011;20485;50.992;5.550;2023-03-23T10:07:19;11.93;;;1.75;;
33926;SDS011;20485;50.992;5.550;2023-03-23T10:09:47;13.05;;;2.30;;
33926;SDS011;20485;50.992;5.550;2023-03-23T10:15:08;7.20;;;2.05;;
33926;SDS011;20485;50.992;5.550;2023-03-23T10:20:35;5.60;;;2.50;;
33926;SDS011;20485;50.992;5.550;2023-03-23T10:25:47;6.30;;;2.55;;
33926;SDS011;20485;50.992;5.550;2023-03-23T10:28:20;5.82;;;1.88;;
33926;SDS011;20485;50.992;5.550;2023-03-23T10:30:59;5.57;;;2.17;;
33926;SDS011;20485;50.992;5.550;2023-03-23T10:38:31;3.70;;;1.60;;
33926;SDS011;20485;50.992;5.550;2023-03-23T10:41:04;6.45;;;1.83;;
33926;SDS011;20485;50.992;5.550;2023-03-23T10:43:41;4.00;;;1.80;;
33926;SDS011;20485;50.992;5.550;2023-03-23T10:46:18;8.13;;;1.70;;
33926;SDS011;20485;50.992;5.550;2023-03-23T10:49:00;7.32;;;2.25;;
33926;SDS011;20485;50.992;5.550;2023-03-23T10:51:30;9.20;;;1.65;;
33926;SDS011;20485;50.992;5.550;2023-03-23T10:54:00;2.67;;;1.35;;
33926;SDS011;20485;50.992;5.550;2023-03-23T10:56:28;7.70;;;1.52;;
33926;SDS011;20485;50.992;5.550;2023-03-23T10:59:28;7.32;;;1.85;;
33926;SDS011;20485;50.992;5.550;2023-03-23T11:01:58;7.97;;;2.40;;
33926;SDS011;20485;50.992;5.550;2023-03-23T11:04:28;6.57;;;2.40;;
33926;SDS011;20485;50.992;5.550;2023-03-23T11:06:58;10.50;;;2.75;;
33926;SDS011;20485;50.992;5.550;2023-03-23T11:09:33;8.82;;;2.92;;
33926;SDS011;20485;50.992;5.550;2023-03-23T11:12:01;3.72;;;2.55;;
33926;SDS011;20485;50.992;5.550;2023-03-23T11:14:28;6.82;;;2.33;;
33926;SDS011;20485;50.992;5.550;2023-03-23T11:16:55;5.05;;;2.50;;
33926;SDS011;20485;50.992;5.550;2023-03-23T11:19:30;4.40;;;2.35;;
33926;SDS011;20485;50.992;5.550;2023-03-23T11:22:06;6.38;;;2.15;;
33926;SDS011;20485;50.992;5.550;2023-03-23T11:24:35;5.55;;;1.80;;
33926;SDS011;20485;50.992;5.550;2023-03-23T11:27:07;5.37;;;1.87;;
33926;SDS011;20485;50.992;5.550;2023-03-23T11:29:34;5.20;;;2.10;;
33926;SDS011;20485;50.992;5.550;2023-03-23T11:32:06;6.45;;;1.70;;
33926;SDS011;20485;50.992;5.550;2023-03-23T11:34:48;5.10;;;1.80;;
33926;SDS011;20485;50.992;5.550;2023-03-23T11:39:54;6.80;;;2.00;;
33926;SDS011;20485;50.992;5.550;2023-03-23T11:42:38;5.45;;;1.98;;
33926;SDS011;20485;50.992;5.550;2023-03-23T11:51:02;8.05;;;1.98;;
33926;SDS011;20485;50.992;5.550;2023-03-23T11:53:37;5.03;;;1.88;;
33926;SDS011;20485;50.992;5.550;2023-03-23T11:56:35;2.88;;;1.88;;
33926;SDS011;20485;50.992;5.550;2023-03-23T11:59:03;8.90;;;2.30;;
33926;SDS011;20485;50.992;5.550;2023-03-23T12:07:14;3.15;;;1.80;;
33926;SDS011;20485;50.992;5.550;2023-03-23T12:12:44;4.80;;;1.70;;
33926;SDS011;20485;50.992;5.550;2023-03-23T12:18:01;9.15;;;2.20;;
33926;SDS011;20485;50.992;5.550;2023-03-23T12:20:45;5.90;;;2.47;;
33926;SDS011;20485;50.992;5.550;2023-03-23T12:34:50;4.80;;;3.05;;
33926;SDS011;20485;50.992;5.550;2023-03-23T12:42:58;7.72;;;3.70;;
33926;SDS011;20485;50.992;5.550;2023-03-23T12:48:36;8.15;;;3.40;;
33926;SDS011;20485;50.992;5.550;2023-03-23T12:51:30;7.07;;;3.17;;
33926;SDS011;20485;50.992;5.550;2023-03-23T12:59:49;5.57;;;2.10;;
33926;SDS011;20485;50.992;5.550;2023-03-23T13:02:44;6.70;;;2.53;;
33926;SDS011;20485;50.992;5.550;2023-03-23T13:10:33;8.65;;;1.98;;
33926;SDS011;20485;50.992;5.550;2023-03-23T13:13:07;7.93;;;2.17;;
33926;SDS011;20485;50.992;5.550;2023-03-23T13:15:51;6.40;;;1.95;;
33926;SDS011;20485;50.992;5.550;2023-03-23T13:18:43;8.18;;;2.08;;
33926;SDS011;20485;50.992;5.550;2023-03-23T13:21:32;10.85;;;2.25;;
33926;SDS011;20485;50.992;5.550;2023-03-23T13:24:07;7.38;;;1.70;;
33926;SDS011;20485;50.992;5.550;2023-03-23T13:26:38;12.60;;;2.05;;
33926;SDS011;20485;50.992;5.550;2023-03-23T13:29:18;8.13;;;2.00;;
33926;SDS011;20485;50.992;5.550;2023-03-23T13:31:45;6.30;;;1.85;;
33926;SDS011;20485;50.992;5.550;2023-03-23T13:34:22;9.05;;;2.03;;
33926;SDS011;20485;50.992;5.550;2023-03-23T13:39:25;8.60;;;2.00;;
33926;SDS011;20485;50.992;5.550;2023-03-23T13:42:04;7.00;;;1.90;;
33926;SDS011;20485;50.992;5.550;2023-03-23T13:50:03;15.88;;;3.25;;
33926;SDS011;20485;50.992;5.550;2023-03-23T13:55:18;7.63;;;2.90;;
33926;SDS011;20485;50.992;5.550;2023-03-23T14:02:58;10.65;;;3.70;;
33926;SDS011;20485;50.992;5.550;2023-03-23T14:08:00;12.77;;;4.13;;
33926;SDS011;20485;50.992;5.550;2023-03-23T14:16:13;10.57;;;4.05;;
33926;SDS011;20485;50.992;5.550;2023-03-23T14:19:04;14.88;;;3.85;;
33926;SDS011;20485;50.992;5.550;2023-03-23T14:21:51;13.52;;;4.03;;
33926;SDS011;20485;50.992;5.550;2023-03-23T14:26:50;17.67;;;4.00;;
33926;SDS011;20485;50.992;5.550;2023-03-23T14:29:19;17.85;;;3.95;;
33926;SDS011;20485;50.992;5.550;2023-03-23T14:31:48;11.55;;;3.70;;
33926;SDS011;20485;50.992;5.550;2023-03-23T14:34:22;11.48;;;3.72;;
33926;SDS011;20485;50.992;5.550;2023-03-23T14:36:50;9.77;;;3.10;;
33926;SDS011;20485;50.992;5.550;2023-03-23T14:41:50;11.18;;;3.53;;
33926;SDS011;20485;50.992;5.550;2023-03-23T14:44:18;16.17;;;3.20;;
33926;SDS011;20485;50.992;5.550;2023-03-23T14:46:49;10.88;;;2.55;;
33926;SDS011;20485;50.992;5.550;2023-03-23T14:49:16;9.07;;;2.22;;
33926;SDS011;20485;50.992;5.550;2023-03-23T14:51:48;7.30;;;2.33;;
33926;SDS011;20485;50.992;5.550;2023-03-23T14:54:18;12.30;;;2.20;;
33926;SDS011;20485;50.992;5.550;2023-03-23T14:59:16;9.43;;;2.25;;
33926;SDS011;20485;50.992;5.550;2023-03-23T15:01:42;9.52;;;2.20;;
33926;SDS011;20485;50.992;5.550;2023-03-23T15:06:56;12.23;;;2.65;;
33926;SDS011;20485;50.992;5.550;2023-03-23T15:09:26;10.75;;;2.75;;
33926;SDS011;20485;50.992;5.550;2023-03-23T15:11:56;11.00;;;2.78;;
33926;SDS011;20485;50.992;5.550;2023-03-23T15:14:44;11.25;;;2.50;;
33926;SDS011;20485;50.992;5.550;2023-03-23T15:17:23;9.88;;;2.53;;
33926;SDS011;20485;50.992;5.550;2023-03-23T15:19:53;14.23;;;3.20;;
33926;SDS011;20485;50.992;5.550;2023-03-23T15:25:12;6.13;;;2.70;;
33926;SDS011;20485;50.992;5.550;2023-03-23T15:27:58;8.27;;;3.05;;
33926;SDS011;20485;50.992;5.550;2023-03-23T15:30:45;11.68;;;2.70;;
33926;SDS011;20485;50.992;5.550;2023-03-23T15:33:13;9.38;;;2.85;;
33926;SDS011;20485;50.992;5.550;2023-03-23T15:35:46;9.57;;;2.15;;
33926;SDS011;20485;50.992;5.550;2023-03-23T15:38:15;7.72;;;2.42;;
33926;SDS011;20485;50.992;5.550;2023-03-23T15:40:48;13.05;;;2.42;;
33926;SDS011;20485;50.992;5.550;2023-03-23T15:45:52;7.55;;;2.30;;
33926;SDS011;20485;50.992;5.550;2023-03-23T15:48:25;11.75;;;2.25;;
33926;SDS011;20485;50.992;5.550;2023-03-23T15:50:52;10.45;;;2.45;;
33926;SDS011;20485;50.992;5.550;2023-03-23T15:53:28;7.72;;;2.42;;
33926;SDS011;20485;50.992;5.550;2023-03-23T15:55:59;11.52;;;2.70;;
33926;SDS011;20485;50.992;5.550;2023-03-23T15:58:28;11.35;;;3.08;;
33926;SDS011;20485;50.992;5.550;2023-03-23T16:00:55;11.20;;;2.90;;
33926;SDS011;20485;50.992;5.550;2023-03-23T16:03:22;12.65;;;2.10;;
33926;SDS011;20485;50.992;5.550;2023-03-23T16:05:54;8.50;;;2.60;;
33926;SDS011;20485;50.992;5.550;2023-03-23T16:08:23;11.60;;;2.38;;
33926;SDS011;20485;50.992;5.550;2023-03-23T16:10:49;15.48;;;2.50;;
33926;SDS011;20485;50.992;5.550;2023-03-23T16:13:15;7.07;;;2.38;;
33926;SDS011;20485;50.992;5.550;2023-03-23T16:15:42;6.65;;;1.95;;
33926;SDS011;20485;50.992;5.550;2023-03-23T16:18:12;11.27;;;2.35;;
33926;SDS011;20485;50.992;5.550;2023-03-23T16:20:45;9.40;;;2.40;;
33926;SDS011;20485;50.992;5.550;2023-03-23T16:23:12;8.13;;;2.20;;
33926;SDS011;20485;50.992;5.550;2023-03-23T16:25:37;7.45;;;2.05;;
33926;SDS011;20485;50.992;5.550;2023-03-23T16:28:03;11.18;;;2.25;;
33926;SDS011;20485;50.992;5.550;2023-03-23T16:30:32;9.38;;;1.92;;
33926;SDS011;20485;50.992;5.550;2023-03-23T16:32:58;10.50;;;2.65;;
33926;SDS011;20485;50.992;5.550;2023-03-23T16:35:24;10.00;;;2.25;;
33926;SDS011;20485;50.992;5.550;2023-03-23T16:37:51;14.90;;;2.30;;
33926;SDS011;20485;50.992;5.550;2023-03-23T16:40:18;6.72;;;2.13;;
33926;SDS011;20485;50.992;5.550;2023-03-23T16:42:45;6.43;;;2.10;;
33926;SDS011;20485;50.992;5.550;2023-03-23T16:45:11;13.95;;;2.40;;
33926;SDS011;20485;50.992;5.550;2023-03-23T16:47:38;8.93;;;2.47;;
33926;SDS011;20485;50.992;5.550;2023-03-23T16:50:05;9.15;;;2.40;;
33926;SDS011;20485;50.992;5.550;2023-03-23T16:52:33;9.55;;;2.17;;
33926;SDS011;20485;50.992;5.550;2023-03-23T16:54:59;10.32;;;2.47;;
33926;SDS011;20485;50.992;5.550;2023-03-23T16:57:25;11.45;;;2.42;;
33926;SDS011;20485;50.992;5.550;2023-03-23T16:59:52;9.02;;;2.35;;
33926;SDS011;20485;50.992;5.550;2023-03-23T17:02:18;6.65;;;1.90;;
33926;SDS011;20485;50.992;5.550;2023-03-23T17:04:44;9.35;;;2.28;;
33926;SDS011;20485;50.992;5.550;2023-03-23T17:07:11;10.98;;;2.10;;
33926;SDS011;20485;50.992;5.550;2023-03-23T17:09:37;9.25;;;2.00;;
33926;SDS011;20485;50.992;5.550;2023-03-23T17:12:04;11.32;;;2.55;;
33926;SDS011;20485;50.992;5.550;2023-03-23T17:14:30;6.30;;;2.00;;
33926;SDS011;20485;50.992;5.550;2023-03-23T17:16:56;7.90;;;2.20;;
33926;SDS011;20485;50.992;5.550;2023-03-23T17:19:22;15.10;;;3.33;;